createdAt,value
2023-03-07T00:00:36.101Z,62.58
2023-03-07T00:03:08.103Z,62.18
2023-03-07T00:05:39.812Z,62.68
2023-03-07T00:08:12.118Z,62.38
2023-03-07T00:10:43.649Z,62.07
2023-03-07T00:13:15.100Z,62.29
2023-03-07T00:15:46.619Z,62.51
2023-03-07T00:18:18.063Z,61.98
2023-03-07T00:21:01.132Z,62.25
2023-03-07T00:23:34.304Z,62.13
2023-03-07T00:26:18.294Z,62.42
2023-03-07T00:28:51.698Z,62.46
2023-03-07T00:31:24.432Z,62.15
2023-03-07T00:33:55.976Z,61.80
2023-03-07T00:36:27.930Z,62.40
2023-03-07T00:38:59.428Z,61.64
2023-03-07T00:41:30.890Z,61.83
2023-03-07T00:44:02.627Z,62.13
2023-03-07T00:46:34.215Z,61.66
2023-03-07T00:49:05.686Z,61.53
2023-03-07T00:51:37.178Z,61.84
2023-03-07T00:54:08.795Z,62.01
2023-03-07T00:56:40.738Z,62.19
2023-03-07T00:59:12.600Z,62.42
2023-03-07T01:01:44.795Z,61.78
2023-03-07T01:04:16.341Z,62.04
2023-03-07T01:06:47.894Z,62.26
2023-03-07T01:09:19.358Z,62.32
2023-03-07T01:11:50.886Z,62.66
2023-03-07T01:14:22.582Z,62.58
2023-03-07T01:16:54.110Z,62.58
2023-03-07T01:19:25.756Z,62.03
2023-03-07T01:21:57.311Z,62.20
2023-03-07T01:24:28.814Z,62.04
2023-03-07T01:27:00.301Z,61.99
2023-03-07T01:29:31.828Z,62.43
2023-03-07T01:32:03.556Z,61.62
2023-03-07T01:34:35.089Z,61.41
2023-03-07T01:37:06.621Z,61.94
2023-03-07T01:39:38.076Z,62.05
2023-03-07T01:42:10.642Z,62.45
2023-03-07T01:45:02.605Z,62.01
2023-03-07T01:47:34.830Z,62.05
2023-03-07T01:50:11.746Z,62.30
2023-03-07T01:52:49.602Z,61.92
2023-03-07T01:55:30.814Z,62.56
2023-03-07T01:58:20.596Z,61.74
2023-03-07T02:00:52.124Z,61.80
2023-03-07T02:03:35.140Z,61.74
2023-03-07T02:06:10.512Z,62.07
2023-03-07T02:08:44.838Z,61.39
2023-03-07T02:11:17.023Z,61.77
2023-03-07T02:13:48.532Z,61.28
2023-03-07T02:16:20.431Z,61.76
2023-03-07T02:18:51.975Z,61.68
2023-03-07T02:21:23.491Z,61.35
2023-03-07T02:24:11.941Z,61.85
2023-03-07T02:26:45.426Z,61.78
2023-03-07T02:29:16.980Z,61.39
2023-03-07T02:31:48.481Z,61.78
2023-03-07T02:34:28.461Z,60.97
2023-03-07T02:37:27.295Z,62.16
2023-03-07T02:40:05.281Z,61.97
2023-03-07T02:42:41.166Z,61.53
2023-03-07T02:45:17.879Z,62.19
2023-03-07T02:47:49.481Z,61.16
2023-03-07T02:50:21.047Z,61.32
2023-03-07T02:52:52.525Z,62.22
2023-03-07T02:55:24.087Z,61.85
2023-03-07T02:57:55.741Z,61.41
2023-03-07T03:00:27.363Z,60.95
2023-03-07T03:02:58.921Z,61.75
2023-03-07T03:05:30.440Z,61.60
2023-03-07T03:08:01.982Z,61.50
2023-03-07T03:10:33.462Z,61.51
2023-03-07T03:13:05.399Z,60.93
2023-03-07T03:15:36.936Z,60.78
2023-03-07T03:18:08.494Z,61.33
2023-03-07T03:20:41.060Z,61.18
2023-03-07T03:23:12.607Z,60.81
2023-03-07T03:25:44.535Z,61.74
2023-03-07T03:28:16.210Z,61.14
2023-03-07T03:31:00.392Z,60.63
2023-03-07T03:33:32.078Z,61.12
2023-03-07T03:36:09.676Z,61.08
2023-03-07T03:38:41.475Z,60.72
2023-03-07T03:41:17.559Z,61.19
2023-03-07T03:43:49.186Z,60.66
2023-03-07T03:46:20.876Z,60.16
2023-03-07T03:48:54.137Z,60.58
2023-03-07T03:51:27.219Z,60.75
2023-03-07T03:53:58.861Z,60.44
2023-03-07T03:56:30.371Z,60.84
2023-03-07T03:59:01.827Z,60.21
2023-03-07T04:01:33.970Z,60.57
2023-03-07T04:04:05.604Z,60.67
2023-03-07T04:06:37.205Z,60.57
2023-03-07T04:09:09.755Z,60.39
2023-03-07T04:11:41.287Z,59.91
2023-03-07T04:14:12.807Z,60.29
2023-03-07T04:16:44.450Z,59.69
2023-03-07T04:19:16.029Z,60.53
2023-03-07T04:21:47.802Z,59.54
2023-03-07T04:24:19.424Z,59.75
2023-03-07T04:26:50.941Z,59.44
2023-03-07T04:29:22.520Z,59.13
2023-03-07T04:31:54.094Z,59.13
2023-03-07T04:34:25.702Z,59.74
2023-03-07T04:36:57.209Z,60.01
2023-03-07T04:39:28.676Z,59.94
2023-03-07T04:42:00.246Z,59.60
2023-03-07T04:44:31.860Z,58.91
2023-03-07T04:47:03.511Z,59.60
2023-03-07T04:49:35.161Z,59.28
2023-03-07T04:52:06.810Z,59.51
2023-03-07T04:54:38.774Z,60.16
2023-03-07T04:57:10.506Z,59.23
2023-03-07T04:59:42.015Z,60.12
2023-03-07T05:02:13.976Z,59.84
2023-03-07T05:04:45.832Z,60.31
2023-03-07T05:07:17.584Z,60.48
2023-03-07T05:09:49.371Z,60.30
2023-03-07T05:12:21.047Z,60.41
2023-03-07T05:14:52.548Z,61.00
2023-03-07T05:17:24.036Z,61.11
2023-03-07T05:19:55.538Z,61.34
2023-03-07T05:22:27.597Z,61.07
2023-03-07T05:24:59.063Z,61.28
2023-03-07T05:27:30.587Z,61.17
2023-03-07T05:30:02.295Z,61.92
2023-03-07T05:32:34.019Z,62.06
2023-03-07T05:35:06.418Z,62.02
2023-03-07T05:37:37.864Z,61.94
2023-03-07T05:40:10.610Z,61.53
2023-03-07T05:42:42.372Z,61.08
2023-03-07T05:45:13.957Z,61.62
2023-03-07T05:47:45.542Z,61.60
2023-03-07T05:50:19.027Z,61.89
2023-03-07T05:52:50.618Z,61.42
2023-03-07T05:55:22.249Z,61.98
2023-03-07T05:57:53.784Z,61.74
2023-03-07T06:00:25.585Z,62.25
2023-03-07T06:02:57.259Z,62.70
2023-03-07T06:05:28.901Z,62.34
2023-03-07T06:08:00.527Z,62.44
2023-03-07T06:10:32.612Z,62.02
2023-03-07T06:13:04.195Z,62.32
2023-03-07T06:15:35.680Z,62.50
2023-03-07T06:18:07.345Z,62.65
2023-03-07T06:20:38.816Z,62.63
2023-03-07T06:23:12.967Z,62.59
2023-03-07T06:25:44.785Z,62.35
2023-03-07T06:28:16.386Z,62.15
2023-03-07T06:30:48.261Z,62.00
2023-03-07T06:33:20.116Z,62.16
2023-03-07T06:35:51.831Z,62.10
2023-03-07T06:38:23.989Z,61.63
2023-03-07T06:40:56.614Z,61.93
2023-03-07T06:43:28.139Z,61.17
2023-03-07T06:46:00.003Z,61.06
2023-03-07T06:48:31.730Z,61.10
2023-03-07T06:51:08.116Z,60.57
2023-03-07T06:53:41.143Z,60.64
2023-03-07T06:56:12.738Z,60.66
2023-03-07T06:58:44.281Z,60.06
2023-03-07T07:01:20.906Z,60.15
2023-03-07T07:03:52.443Z,59.68
2023-03-07T07:06:24.064Z,59.67
2023-03-07T07:08:57.277Z,60.04
2023-03-07T07:11:28.762Z,59.88
2023-03-07T07:14:00.247Z,59.42
2023-03-07T07:16:33.680Z,58.68
2023-03-07T07:19:05.354Z,59.33
2023-03-07T07:21:36.827Z,59.50
2023-03-07T07:24:11.967Z,59.14
2023-03-07T07:26:43.643Z,58.67
2023-03-07T07:29:15.942Z,58.99
2023-03-07T07:31:47.622Z,58.03
2023-03-07T07:34:19.225Z,57.90
2023-03-07T07:36:50.821Z,58.37
2023-03-07T07:39:23.400Z,58.07
2023-03-07T07:41:54.913Z,59.27
2023-03-07T07:44:30.296Z,58.48
2023-03-07T07:47:01.858Z,58.61
2023-03-07T07:49:33.557Z,58.73
2023-03-07T07:52:05.237Z,57.85
2023-03-07T07:54:36.787Z,57.82
2023-03-07T07:57:08.281Z,58.01
2023-03-07T07:59:39.808Z,57.76
2023-03-07T08:02:13.826Z,56.90
2023-03-07T08:04:47.390Z,56.57
2023-03-07T08:07:18.918Z,56.05
2023-03-07T08:09:50.678Z,55.20
2023-03-07T08:12:22.197Z,56.10
2023-03-07T08:14:53.673Z,54.87
2023-03-07T08:17:25.224Z,55.56
2023-03-07T08:20:01.700Z,54.82
2023-03-07T08:22:33.433Z,54.49
2023-03-07T08:25:06.651Z,53.53
2023-03-07T08:27:38.208Z,53.72
2023-03-07T08:30:10.395Z,53.49
2023-03-07T08:32:41.954Z,53.22
2023-03-07T08:35:13.543Z,53.59
2023-03-07T08:37:45.640Z,53.07
2023-03-07T08:40:17.227Z,52.23
2023-03-07T08:42:49.965Z,52.31
2023-03-07T08:45:23.072Z,52.06
2023-03-07T08:47:56.842Z,51.97
2023-03-07T08:50:29.043Z,51.71
2023-03-07T08:53:00.687Z,51.59
2023-03-07T08:55:35.481Z,51.59
2023-03-07T08:58:07.525Z,51.06
2023-03-07T09:00:39.576Z,50.82
2023-03-07T09:03:11.356Z,50.22
2023-03-07T09:05:43.811Z,50.75
2023-03-07T09:08:15.768Z,50.53
2023-03-07T09:10:48.139Z,50.82
2023-03-07T09:13:19.550Z,50.19
2023-03-07T09:15:51.252Z,49.57
2023-03-07T09:18:23.295Z,49.75
2023-03-07T09:20:54.855Z,50.00
2023-03-07T09:23:26.770Z,49.30
2023-03-07T09:26:03.272Z,49.76
2023-03-07T09:28:34.785Z,49.17
2023-03-07T09:31:10.958Z,49.50
2023-03-07T09:33:44.711Z,49.43
2023-03-07T09:36:19.642Z,49.30
2023-03-07T09:38:51.469Z,48.60
2023-03-07T09:41:41.359Z,47.19
2023-03-07T09:44:23.338Z,46.74
2023-03-07T09:47:13.340Z,46.74
2023-03-07T09:49:47.233Z,46.42
2023-03-07T09:52:28.657Z,45.44
2023-03-07T09:55:03.461Z,45.96
2023-03-07T09:57:57.823Z,45.45
2023-03-07T10:00:36.724Z,45.67
2023-03-07T10:03:44.381Z,45.93
2023-03-07T10:06:30.601Z,46.02
2023-03-07T10:09:02.718Z,46.42
2023-03-07T10:12:29.788Z,45.57
2023-03-07T10:15:29.000Z,45.17
2023-03-07T10:18:26.503Z,44.84
2023-03-07T10:21:13.006Z,44.41
2023-03-07T10:23:51.156Z,44.36
2023-03-07T10:26:42.934Z,43.82
2023-03-07T10:29:19.519Z,43.91
2023-03-07T10:32:15.669Z,42.89
2023-03-07T10:34:57.100Z,43.28
2023-03-07T10:37:50.477Z,43.14
2023-03-07T10:40:27.267Z,43.19
2023-03-07T10:43:00.100Z,43.26
2023-03-07T10:45:33.418Z,42.68
2023-03-07T10:48:15.541Z,43.20
2023-03-07T10:51:01.362Z,43.03
2023-03-07T10:53:36.435Z,43.60
2023-03-07T10:56:18.151Z,43.32
2023-03-07T10:59:09.740Z,42.96
2023-03-07T11:01:54.551Z,43.04
2023-03-07T11:04:30.279Z,43.25
2023-03-07T11:07:02.708Z,42.34
2023-03-07T11:09:34.989Z,42.76
2023-03-07T11:12:06.476Z,42.93
2023-03-07T11:15:00.330Z,43.57
2023-03-07T11:17:46.546Z,43.10
2023-03-07T11:20:25.789Z,43.29
2023-03-07T11:23:12.660Z,42.42
2023-03-07T11:25:44.440Z,42.59
2023-03-07T11:28:31.372Z,42.44
2023-03-07T11:31:21.602Z,42.59
2023-03-07T11:34:06.524Z,41.76
2023-03-07T11:36:40.712Z,42.22
2023-03-07T11:39:19.064Z,41.79
2023-03-07T11:41:57.979Z,41.93
2023-03-07T11:44:48.201Z,41.95
2023-03-07T11:47:50.825Z,42.13
2023-03-07T11:50:28.969Z,41.63
2023-03-07T11:53:22.433Z,41.11
2023-03-07T11:56:15.879Z,41.11
2023-03-07T11:59:09.356Z,40.80
2023-03-07T12:01:47.248Z,40.92
2023-03-07T12:04:24.674Z,41.02
2023-03-07T12:07:05.164Z,40.81
2023-03-07T12:09:52.352Z,39.87
2023-03-07T12:12:35.944Z,40.30
2023-03-07T12:15:13.232Z,40.38
2023-03-07T12:18:21.908Z,40.16
2023-03-07T12:21:08.601Z,40.39
2023-03-07T12:23:49.245Z,39.95
2023-03-07T12:26:26.172Z,40.04
2023-03-07T12:29:31.948Z,40.87
2023-03-07T12:32:16.533Z,40.26
2023-03-07T12:34:56.072Z,39.64
2023-03-07T12:37:35.897Z,40.81
2023-03-07T12:40:19.694Z,40.02
2023-03-07T12:42:51.150Z,39.39
2023-03-07T12:45:33.589Z,40.22
2023-03-07T12:48:15.428Z,39.41
2023-03-07T12:51:04.710Z,37.99
2023-03-07T12:53:48.188Z,37.81
2023-03-07T12:57:03.989Z,39.70
2023-03-07T12:59:39.921Z,38.79
2023-03-07T13:02:16.415Z,38.48
2023-03-07T13:04:47.888Z,38.70
2023-03-07T13:07:26.660Z,37.57
2023-03-07T13:10:00.576Z,34.55
2023-03-07T13:12:38.765Z,31.27
2023-03-07T13:15:19.029Z,27.71
2023-03-07T13:17:50.476Z,26.74
2023-03-07T13:20:27.711Z,26.51
2023-03-07T13:23:12.204Z,25.16
2023-03-07T13:25:48.077Z,24.44
2023-03-07T13:28:36.059Z,24.35
2023-03-07T13:31:15.772Z,24.21
2023-03-07T13:33:48.127Z,26.06
2023-03-07T13:36:35.419Z,26.60
2023-03-07T13:39:35.617Z,27.59
2023-03-07T13:42:46.243Z,26.11
2023-03-07T13:45:39.674Z,24.83
2023-03-07T13:48:15.484Z,23.93
2023-03-07T13:50:53.564Z,24.38
2023-03-07T13:53:28.122Z,24.38
2023-03-07T13:56:15.112Z,25.80
2023-03-07T13:59:10.603Z,26.58
2023-03-07T14:02:12.817Z,27.13
2023-03-07T14:04:51.841Z,27.81
2023-03-07T14:07:36.943Z,27.65
2023-03-07T14:10:26.519Z,29.62
2023-03-07T14:13:13.593Z,30.43
2023-03-07T14:16:03.464Z,29.28
2023-03-07T14:19:00.811Z,29.39
2023-03-07T14:21:49.896Z,29.65
2023-03-07T14:24:52.275Z,29.65
2023-03-07T14:27:24.895Z,30.73
2023-03-07T14:29:57.184Z,30.10
2023-03-07T14:32:31.302Z,30.01
2023-03-07T14:35:02.898Z,29.22
2023-03-07T14:37:34.436Z,29.11
2023-03-07T14:40:13.134Z,30.09
2023-03-07T14:43:14.853Z,29.73
2023-03-07T14:45:58.215Z,30.71
2023-03-07T14:48:41.659Z,30.59
2023-03-07T14:51:17.450Z,31.04
2023-03-07T14:53:50.059Z,29.78
2023-03-07T14:56:28.341Z,28.31
2023-03-07T14:59:01.907Z,28.25
2023-03-07T15:01:37.018Z,27.13
2023-03-07T15:04:30.071Z,24.80
2023-03-07T15:07:04.640Z,25.20
2023-03-07T15:09:36.246Z,25.37
2023-03-07T15:12:23.103Z,27.96
2023-03-07T15:14:59.974Z,29.39
2023-03-07T15:17:44.701Z,30.47
2023-03-07T15:20:26.089Z,30.54
2023-03-07T15:23:07.872Z,29.21
2023-03-07T15:25:40.757Z,28.76
2023-03-07T15:28:23.192Z,28.42
2023-03-07T15:30:55.811Z,27.75
2023-03-07T15:33:28.351Z,26.37
2023-03-07T15:36:17.994Z,26.62
2023-03-07T15:38:51.198Z,27.99
2023-03-07T15:41:29.824Z,28.70
2023-03-07T15:44:19.440Z,29.83
2023-03-07T15:46:54.502Z,30.93
2023-03-07T15:49:40.671Z,32.31
2023-03-07T15:52:24.681Z,32.71
2023-03-07T15:55:00.085Z,33.86
2023-03-07T15:57:37.038Z,34.49
2023-03-07T16:00:16.739Z,35.26
2023-03-07T16:02:50.397Z,36.03
2023-03-07T16:05:22.959Z,36.76
2023-03-07T16:07:57.079Z,37.31
2023-03-07T16:10:31.512Z,37.43
2023-03-07T16:13:05.711Z,37.90
2023-03-07T16:15:37.273Z,38.75
2023-03-07T16:18:08.939Z,38.29
2023-03-07T16:20:40.453Z,39.08
2023-03-07T16:23:14.506Z,39.18
2023-03-07T16:25:46.551Z,38.79
2023-03-07T16:28:18.812Z,39.40
2023-03-07T16:30:50.345Z,39.47
2023-03-07T16:33:22.035Z,39.89
2023-03-07T16:35:53.638Z,40.77
2023-03-07T16:38:25.182Z,41.46
2023-03-07T16:40:57.670Z,41.87
2023-03-07T16:43:37.908Z,42.20
2023-03-07T16:46:16.328Z,42.65
2023-03-07T16:48:48.014Z,42.91
2023-03-07T16:51:25.683Z,43.42
2023-03-07T16:53:59.785Z,43.94
2023-03-07T16:56:38.583Z,43.98
2023-03-07T16:59:20.627Z,44.43
2023-03-07T17:01:54.688Z,44.27
2023-03-07T17:04:26.182Z,44.74
2023-03-07T17:07:04.597Z,44.49
2023-03-07T17:09:36.622Z,44.82
2023-03-07T17:12:08.568Z,45.39
2023-03-07T17:14:40.613Z,45.88
2023-03-07T17:17:22.137Z,46.19
2023-03-07T17:19:53.614Z,46.44
2023-03-07T17:22:25.222Z,46.64
2023-03-07T17:24:56.714Z,46.95
2023-03-07T17:27:28.427Z,46.88
2023-03-07T17:30:00.029Z,47.84
2023-03-07T17:32:31.551Z,47.46
2023-03-07T17:35:03.499Z,48.31
2023-03-07T17:37:35.527Z,46.89
2023-03-07T17:40:10.933Z,48.22
2023-03-07T17:42:43.716Z,47.65
2023-03-07T17:45:15.242Z,47.97
2023-03-07T17:47:54.028Z,48.49
2023-03-07T17:50:25.947Z,48.92
2023-03-07T17:52:58.093Z,48.78
2023-03-07T17:55:30.586Z,48.97
2023-03-07T17:58:02.153Z,48.84
2023-03-07T18:00:34.054Z,49.14
2023-03-07T18:03:07.454Z,49.52
2023-03-07T18:05:40.110Z,49.10
2023-03-07T18:08:11.961Z,49.70
2023-03-07T18:10:43.628Z,49.62
2023-03-07T18:13:15.224Z,50.02
2023-03-07T18:15:48.085Z,49.34
2023-03-07T18:18:19.643Z,49.60
2023-03-07T18:21:01.880Z,50.14
2023-03-07T18:23:35.342Z,49.77
2023-03-07T18:26:13.758Z,49.50
2023-03-07T18:28:47.476Z,49.81
2023-03-07T18:31:25.337Z,50.25
2023-03-07T18:33:57.071Z,49.64
2023-03-07T18:36:28.669Z,50.53
2023-03-07T18:39:01.253Z,50.15
2023-03-07T18:41:33.212Z,50.21
2023-03-07T18:44:05.114Z,50.31
2023-03-07T18:46:38.499Z,50.97
2023-03-07T18:49:10.150Z,50.87
2023-03-07T18:51:44.089Z,50.70
2023-03-07T18:54:15.925Z,51.09
2023-03-07T18:56:48.194Z,50.69
2023-03-07T18:59:23.633Z,50.88
2023-03-07T19:01:55.826Z,51.29
2023-03-07T19:04:27.530Z,50.86
2023-03-07T19:07:00.580Z,51.57
2023-03-07T19:09:32.181Z,51.49
2023-03-07T19:12:05.766Z,51.63
2023-03-07T19:14:37.967Z,51.11
2023-03-07T19:17:09.475Z,51.59
2023-03-07T19:19:41.218Z,51.45
2023-03-07T19:22:12.774Z,51.28
2023-03-07T19:24:44.768Z,51.56
2023-03-07T19:27:17.322Z,51.13
2023-03-07T19:29:48.889Z,51.20
2023-03-07T19:32:20.768Z,51.13
2023-03-07T19:34:52.357Z,52.00
2023-03-07T19:37:24.046Z,51.92
2023-03-07T19:39:55.709Z,51.82
2023-03-07T19:42:27.431Z,53.03
2023-03-07T19:44:58.983Z,52.74
2023-03-07T19:47:30.700Z,51.85
2023-03-07T19:50:03.392Z,51.93
2023-03-07T19:52:34.896Z,52.65
2023-03-07T19:55:07.045Z,52.55
2023-03-07T19:57:41.395Z,51.93
2023-03-07T20:00:13.815Z,51.45
2023-03-07T20:02:45.240Z,51.70
2023-03-07T20:05:16.916Z,51.43
2023-03-07T20:07:48.921Z,51.61
2023-03-07T20:10:21.551Z,51.57
2023-03-07T20:12:54.590Z,51.60
2023-03-07T20:15:27.683Z,51.24
2023-03-07T20:18:01.644Z,51.41
2023-03-07T20:20:36.258Z,51.87
2023-03-07T20:23:07.798Z,50.78
2023-03-07T20:25:39.439Z,51.25
2023-03-07T20:28:12.582Z,51.11
2023-03-07T20:30:44.132Z,51.79
2023-03-07T20:33:15.815Z,50.72
2023-03-07T20:35:47.551Z,50.98
2023-03-07T20:38:19.089Z,51.69
2023-03-07T20:41:00.294Z,51.75
2023-03-07T20:43:33.593Z,51.36
2023-03-07T20:46:12.816Z,51.58
2023-03-07T20:48:45.212Z,51.74
2023-03-07T20:51:20.402Z,52.23
2023-03-07T20:53:53.326Z,51.32
2023-03-07T20:56:27.044Z,51.21
2023-03-07T20:59:02.923Z,52.13
2023-03-07T21:01:36.398Z,52.11
2023-03-07T21:04:12.766Z,51.54
2023-03-07T21:06:45.307Z,51.53
2023-03-07T21:09:17.932Z,51.85
2023-03-07T21:11:50.166Z,52.12
2023-03-07T21:14:21.987Z,51.95
2023-03-07T21:16:53.534Z,51.84
2023-03-07T21:19:25.306Z,51.82
2023-03-07T21:21:59.781Z,52.03
2023-03-07T21:24:31.669Z,52.62
2023-03-07T21:27:03.240Z,52.14
2023-03-07T21:29:34.823Z,52.56
2023-03-07T21:32:06.445Z,51.98
2023-03-07T21:34:38.392Z,52.94
2023-03-07T21:37:10.371Z,52.75
2023-03-07T21:39:42.106Z,53.04
2023-03-07T21:42:13.718Z,52.80
2023-03-07T21:44:46.285Z,52.68
2023-03-07T21:47:20.374Z,53.37
2023-03-07T21:49:52.892Z,52.50
2023-03-07T21:52:24.442Z,53.42
2023-03-07T21:54:57.134Z,52.66
2023-03-07T21:57:29.789Z,53.59
2023-03-07T22:00:01.294Z,54.21
2023-03-07T22:02:32.835Z,53.01
2023-03-07T22:05:05.124Z,53.16
2023-03-07T22:07:36.913Z,53.21
2023-03-07T22:10:09.297Z,53.15
2023-03-07T22:12:40.614Z,53.77
2023-03-07T22:15:12.150Z,53.22
2023-03-07T22:17:46.604Z,52.90
2023-03-07T22:20:18.293Z,52.26
2023-03-07T22:22:49.905Z,53.11
2023-03-07T22:25:21.473Z,53.10
2023-03-07T22:27:53.342Z,53.51
2023-03-07T22:30:24.847Z,53.75
2023-03-07T22:32:56.355Z,54.15
2023-03-07T22:35:28.288Z,53.92
2023-03-07T22:37:59.797Z,54.38
2023-03-07T22:40:32.587Z,54.04
2023-03-07T22:43:04.196Z,54.62
2023-03-07T22:45:35.758Z,54.25
2023-03-07T22:48:07.272Z,54.56
2023-03-07T22:50:39.312Z,55.61
2023-03-07T22:53:10.894Z,55.06
2023-03-07T22:55:43.445Z,54.97
2023-03-07T22:58:15.276Z,55.18
2023-03-07T23:00:48.268Z,54.71
2023-03-07T23:03:20.101Z,54.71
2023-03-07T23:05:51.801Z,54.62
2023-03-07T23:08:23.363Z,55.29
2023-03-07T23:11:03.671Z,54.85
2023-03-07T23:13:35.411Z,54.50
2023-03-07T23:16:16.775Z,54.83
2023-03-07T23:18:50.778Z,54.46
2023-03-07T23:21:26.338Z,54.72
2023-03-07T23:23:59.065Z,54.77
2023-03-07T23:26:36.168Z,55.36
2023-03-07T23:29:09.733Z,54.94
2023-03-07T23:31:42.923Z,54.97
2023-03-07T23:34:18.001Z,55.84
2023-03-07T23:36:49.781Z,54.96
2023-03-07T23:39:21.823Z,56.04
2023-03-07T23:41:53.768Z,55.29
2023-03-07T23:44:25.352Z,54.85
2023-03-07T23:46:56.849Z,55.32
2023-03-07T23:49:28.341Z,55.46
2023-03-07T23:51:59.791Z,54.70
2023-03-07T23:54:31.571Z,54.92
2023-03-07T23:57:03.233Z,55.69
2023-03-07T23:59:34.754Z,55.60
